createdAt,value
2022-12-05T00:00:21.537Z,65.55
2022-12-05T00:05:25.275Z,75.82
2022-12-05T00:10:29.009Z,76.70
2022-12-05T00:15:37.830Z,66.47
2022-12-05T00:20:46.401Z,70.82
2022-12-05T00:25:50.159Z,68.97
2022-12-05T00:30:55.157Z,75.55
2022-12-05T00:36:03.155Z,70.28
2022-12-05T00:41:08.010Z,72.70
2022-12-05T00:46:15.255Z,74.15
2022-12-05T00:51:21.395Z,67.63
2022-12-05T00:56:26.694Z,73.18
2022-12-05T01:01:34.191Z,72.03
2022-12-05T01:06:38.592Z,68.62
2022-12-05T01:11:42.869Z,73.75
2022-12-05T01:16:50.142Z,77.10
2022-12-05T01:21:55.002Z,52.80
2022-12-05T01:26:59.058Z,73.15
2022-12-05T01:32:04.797Z,68.60
2022-12-05T01:37:08.954Z,79.43
2022-12-05T01:42:13.365Z,70.45
2022-12-05T01:47:20.025Z,67.03
2022-12-05T01:52:26.266Z,79.28
2022-12-05T01:57:30.274Z,81.82
2022-12-05T02:02:35.375Z,70.90
2022-12-05T02:07:41.677Z,72.75
2022-12-05T02:12:46.497Z,66.65
2022-12-05T02:18:02.647Z,69.95
2022-12-05T02:23:54.718Z,69.47
2022-12-05T02:29:44.641Z,76.05
2022-12-05T02:34:59.640Z,71.90
2022-12-05T02:40:12.108Z,74.55
2022-12-05T02:45:19.913Z,75.12
2022-12-05T02:50:27.079Z,84.15
2022-12-05T02:55:32.911Z,81.28
2022-12-05T03:00:41.022Z,81.28
2022-12-05T03:10:54.074Z,82.68
2022-12-05T03:16:04.038Z,78.70
2022-12-05T03:21:18.782Z,69.15
2022-12-05T03:26:38.335Z,81.95
2022-12-05T03:31:50.305Z,81.35
2022-12-05T03:36:55.587Z,82.82
2022-12-05T03:42:04.875Z,78.93
2022-12-05T03:47:18.518Z,79.50
2022-12-05T03:52:28.386Z,84.25
2022-12-05T03:57:35.629Z,71.70
2022-12-05T04:02:46.301Z,70.77
2022-12-05T04:07:54.863Z,82.45
2022-12-05T04:13:17.862Z,73.30
2022-12-05T04:18:26.098Z,71.65
2022-12-05T04:28:39.397Z,79.57
2022-12-05T04:33:47.870Z,78.82
2022-12-05T04:38:54.862Z,76.55
2022-12-05T04:44:02.806Z,72.20
2022-12-05T04:49:12.668Z,74.80
2022-12-05T04:54:20.972Z,92.03
2022-12-05T04:59:24.702Z,78.05
2022-12-05T05:04:34.977Z,72.47
2022-12-05T05:09:40.106Z,79.40
2022-12-05T05:14:43.914Z,74.03
2022-12-05T05:19:48.954Z,79.20
2022-12-05T05:24:52.700Z,75.22
2022-12-05T05:29:56.804Z,61.13
2022-12-05T05:35:02.073Z,86.55
2022-12-05T05:40:10.956Z,72.12
2022-12-05T05:45:16.561Z,72.18
2022-12-05T05:50:22.190Z,68.43
2022-12-05T05:55:25.996Z,72.97
2022-12-05T06:00:29.691Z,71.85
2022-12-05T06:05:34.779Z,71.95
2022-12-05T06:10:39.662Z,67.95
2022-12-05T06:15:43.376Z,64.70
2022-12-05T06:20:54.496Z,68.18
2022-12-05T06:25:58.527Z,64.87
2022-12-05T06:31:08.696Z,66.55
2022-12-05T06:36:16.186Z,75.47
2022-12-05T06:41:21.385Z,64.60
2022-12-05T06:46:26.234Z,61.83
2022-12-05T06:51:31.327Z,65.03
2022-12-05T06:56:35.269Z,64.75
2022-12-05T07:01:42.918Z,64.60
2022-12-05T07:06:50.962Z,66.20
2022-12-05T07:11:54.831Z,63.87
2022-12-05T07:16:58.559Z,63.35
2022-12-05T07:22:03.842Z,60.38
2022-12-05T07:27:07.681Z,59.67
2022-12-05T07:32:11.668Z,63.28
2022-12-05T07:37:16.799Z,55.17
2022-12-05T07:42:20.536Z,59.60
2022-12-05T07:47:24.313Z,63.63
2022-12-05T07:52:29.831Z,57.38
2022-12-05T07:57:33.541Z,57.40
2022-12-05T08:02:40.652Z,64.07
2022-12-05T08:07:46.191Z,60.40
2022-12-05T08:12:49.927Z,60.25
2022-12-05T08:17:53.783Z,53.58
2022-12-05T08:22:58.854Z,51.78
2022-12-05T08:28:02.583Z,48.80
2022-12-05T08:33:06.289Z,51.45
2022-12-05T08:38:11.462Z,57.10
2022-12-05T08:43:15.182Z,52.20
2022-12-05T08:48:18.885Z,58.58
2022-12-05T08:53:24.032Z,59.92
2022-12-05T08:58:27.800Z,63.28
2022-12-05T09:03:31.540Z,55.83
2022-12-05T09:08:36.975Z,57.95
2022-12-05T09:13:41.147Z,54.55
2022-12-05T09:18:45.963Z,59.75
2022-12-05T09:23:51.465Z,55.92
2022-12-05T09:28:55.586Z,55.53
2022-12-05T09:33:59.491Z,60.75
2022-12-05T09:39:07.147Z,54.55
2022-12-05T09:44:18.683Z,46.10
2022-12-05T09:49:24.421Z,49.45
2022-12-05T09:54:29.763Z,47.17
2022-12-05T09:59:33.467Z,50.35
2022-12-05T10:05:00.148Z,43.90
2022-12-05T10:10:22.554Z,46.17
2022-12-05T10:15:32.730Z,48.38
2022-12-05T10:20:44.280Z,45.05
2022-12-05T10:25:52.603Z,43.65
2022-12-05T10:31:01.682Z,49.38
2022-12-05T10:36:12.182Z,49.03
2022-12-05T10:41:17.825Z,43.33
2022-12-05T10:46:21.615Z,38.95
2022-12-05T10:51:35.660Z,39.83
2022-12-05T10:56:45.631Z,45.55
2022-12-05T11:06:58.197Z,40.28
2022-12-05T11:12:07.814Z,37.30
2022-12-05T11:17:26.178Z,32.78
2022-12-05T11:22:35.069Z,32.58
2022-12-05T11:27:40.120Z,33.38
2022-12-05T11:32:43.849Z,30.50
2022-12-05T11:37:53.190Z,29.35
2022-12-05T11:43:24.568Z,30.10
2022-12-05T11:48:56.770Z,29.75
2022-12-05T11:54:56.732Z,26.23
2022-12-05T12:00:14.018Z,30.17
2022-12-05T12:05:26.468Z,30.02
2022-12-05T12:10:38.779Z,30.10
2022-12-05T12:15:58.901Z,31.02
2022-12-05T12:21:17.383Z,26.33
2022-12-05T12:26:28.638Z,27.05
2022-12-05T12:31:45.045Z,27.73
2022-12-05T12:36:55.054Z,23.25
2022-12-05T12:42:14.403Z,25.95
2022-12-05T12:47:30.765Z,31.25
2022-12-05T12:52:51.659Z,25.42
2022-12-05T12:58:07.729Z,20.48
2022-12-05T13:03:18.545Z,20.85
2022-12-05T13:08:28.430Z,20.90
2022-12-05T13:13:37.485Z,22.13
2022-12-05T13:18:42.675Z,23.05
2022-12-05T13:23:49.824Z,20.70
2022-12-05T13:28:56.022Z,22.08
2022-12-05T13:34:01.087Z,20.98
2022-12-05T13:39:24.899Z,21.15
2022-12-05T13:44:34.315Z,20.42
2022-12-05T13:49:46.318Z,21.40
2022-12-05T13:54:57.453Z,22.08
2022-12-05T14:00:05.841Z,26.33
2022-12-05T14:05:42.234Z,26.12
2022-12-05T14:11:16.253Z,29.25
2022-12-05T14:16:47.963Z,29.08
2022-12-05T14:22:01.726Z,26.87
2022-12-05T14:27:11.897Z,28.42
2022-12-05T14:32:24.478Z,49.63
2022-12-05T14:37:32.523Z,41.08
2022-12-05T14:42:40.092Z,29.50
2022-12-05T14:47:52.669Z,26.73
2022-12-05T14:53:30.237Z,24.35
2022-12-05T14:58:38.618Z,26.98
2022-12-05T15:04:00.456Z,53.65
2022-12-05T15:09:35.924Z,33.60
2022-12-05T15:14:40.999Z,31.55
2022-12-05T15:19:50.460Z,27.85
2022-12-05T15:24:55.791Z,26.33
2022-12-05T15:29:59.505Z,18.58
2022-12-05T15:35:09.054Z,22.50
2022-12-05T15:40:17.864Z,19.30
2022-12-05T15:45:24.933Z,17.70
2022-12-05T15:50:34.812Z,14.10
2022-12-05T15:55:43.337Z,10.60
2022-12-05T16:00:51.929Z,9.70
2022-12-05T16:05:59.286Z,8.15
2022-12-05T16:11:09.992Z,9.27
2022-12-05T16:16:18.766Z,8.63
2022-12-05T16:21:38.591Z,9.50
2022-12-05T16:26:44.370Z,14.38
2022-12-05T16:31:54.945Z,7.75
2022-12-05T16:36:59.143Z,8.25
2022-12-05T16:42:05.109Z,8.25
2022-12-05T16:47:23.486Z,8.25
2022-12-05T16:52:32.266Z,10.15
2022-12-05T16:57:37.353Z,8.52
2022-12-05T17:02:41.046Z,6.22
2022-12-05T17:07:44.768Z,12.88
2022-12-05T17:12:49.936Z,11.18
2022-12-05T17:17:53.744Z,8.88
2022-12-05T17:22:57.395Z,8.32
2022-12-05T17:28:02.487Z,9.73
2022-12-05T17:33:06.248Z,11.43
2022-12-05T17:38:11.185Z,7.97
2022-12-05T17:43:20.047Z,10.80
2022-12-05T17:48:27.191Z,11.60
2022-12-05T17:53:30.949Z,12.82
2022-12-05T17:58:36.154Z,11.25
2022-12-05T18:03:39.925Z,13.80
2022-12-05T18:08:44.929Z,11.82
2022-12-05T18:13:50.418Z,11.98
2022-12-05T18:18:55.133Z,14.40
2022-12-05T18:23:59.759Z,13.02
2022-12-05T18:29:04.872Z,17.77
2022-12-05T18:34:08.638Z,12.32
2022-12-05T18:39:14.891Z,12.73
2022-12-05T18:44:19.950Z,11.55
2022-12-05T18:49:24.136Z,8.77
2022-12-05T18:54:27.820Z,13.55
2022-12-05T18:59:32.890Z,12.20
2022-12-05T19:04:36.812Z,11.60
2022-12-05T19:09:40.592Z,16.70
2022-12-05T19:14:47.543Z,14.68
2022-12-05T19:19:52.271Z,16.50
2022-12-05T19:24:56.055Z,14.75
2022-12-05T19:30:06.445Z,12.68
2022-12-05T19:35:13.075Z,12.23
2022-12-05T19:40:17.152Z,14.30
2022-12-05T19:45:22.242Z,15.25
2022-12-05T19:50:25.975Z,14.00
2022-12-05T19:55:30.792Z,12.95
2022-12-05T20:00:35.867Z,21.12
2022-12-05T20:05:39.614Z,22.62
2022-12-05T20:10:43.803Z,17.48
2022-12-05T20:15:49.377Z,17.90
2022-12-05T20:20:57.726Z,18.17
2022-12-05T20:26:03.550Z,23.73
2022-12-05T20:31:10.921Z,16.12
2022-12-05T20:36:16.057Z,24.67
2022-12-05T20:41:20.066Z,17.10
2022-12-05T20:46:25.408Z,18.83
2022-12-05T20:51:30.959Z,17.00
2022-12-05T20:56:35.922Z,20.12
2022-12-05T21:01:41.345Z,20.02
2022-12-05T21:06:46.601Z,18.95
2022-12-05T21:11:50.378Z,20.12
2022-12-05T21:16:55.795Z,20.90
2022-12-05T21:21:59.626Z,19.12
2022-12-05T21:27:03.362Z,15.05
2022-12-05T21:32:09.656Z,17.45
2022-12-05T21:37:13.445Z,13.98
2022-12-05T21:42:18.143Z,13.20
2022-12-05T21:47:23.201Z,20.50
2022-12-05T21:52:26.911Z,20.75
2022-12-05T21:57:32.098Z,16.95
2022-12-05T22:02:37.329Z,15.57
2022-12-05T22:07:41.471Z,18.58
2022-12-05T22:12:45.827Z,11.60
2022-12-05T22:17:50.843Z,13.48
2022-12-05T22:22:54.576Z,16.98
2022-12-05T22:27:58.350Z,12.25
2022-12-05T22:33:03.391Z,12.60
2022-12-05T22:38:07.164Z,11.02
2022-12-05T22:43:10.881Z,11.95
2022-12-05T22:48:15.952Z,10.88
2022-12-05T22:53:20.732Z,14.48
2022-12-05T22:58:24.542Z,14.63
2022-12-05T23:03:30.012Z,10.75
2022-12-05T23:08:34.384Z,9.70
2022-12-05T23:13:40.525Z,10.93
2022-12-05T23:18:48.877Z,9.20
2022-12-05T23:23:54.960Z,10.60
2022-12-05T23:28:59.282Z,13.25
2022-12-05T23:34:05.192Z,10.43
2022-12-05T23:39:09.353Z,12.25
2022-12-05T23:44:13.544Z,11.75
2022-12-05T23:49:19.186Z,11.77
2022-12-05T23:54:23.245Z,10.90
2022-12-05T23:59:27.388Z,8.98
